createdAt,value
2022-11-28T00:00:16.022Z,29.511
2022-11-28T00:05:15.948Z,29.506
2022-11-28T00:10:15.940Z,29.490
2022-11-28T00:15:15.912Z,29.478
2022-11-28T00:20:16.025Z,29.477
2022-11-28T00:25:16.147Z,29.461
2022-11-28T00:30:16.051Z,29.455
2022-11-28T00:35:16.032Z,29.459
2022-11-28T00:40:16.146Z,29.457
2022-11-28T00:45:15.969Z,29.449
2022-11-28T00:50:16.098Z,29.440
2022-11-28T00:55:16.178Z,29.433
2022-11-28T01:00:16.070Z,29.428
2022-11-28T01:05:16.211Z,29.422
2022-11-28T01:10:16.319Z,29.416
2022-11-28T01:15:16.108Z,29.405
2022-11-28T01:20:16.135Z,29.404
2022-11-28T01:25:16.184Z,29.399
2022-11-28T01:30:16.110Z,29.394
2022-11-28T01:35:16.150Z,29.391
2022-11-28T01:40:16.291Z,29.384
2022-11-28T01:45:16.104Z,29.378
2022-11-28T01:50:16.231Z,29.371
2022-11-28T01:55:16.058Z,29.370
2022-11-28T02:00:16.089Z,29.360
2022-11-28T02:05:16.218Z,29.349
2022-11-28T02:10:16.260Z,29.350
2022-11-28T02:15:16.123Z,29.342
2022-11-28T02:20:16.192Z,29.341
2022-11-28T02:25:16.242Z,29.332
2022-11-28T02:30:16.194Z,29.329
2022-11-28T02:35:16.249Z,29.323
2022-11-28T02:40:16.342Z,29.326
2022-11-28T02:45:16.386Z,29.316
2022-11-28T02:50:16.267Z,29.317
2022-11-28T02:55:16.312Z,29.318
2022-11-28T03:00:17.837Z,29.310
2022-11-28T03:05:16.257Z,29.299
2022-11-28T03:10:16.300Z,29.295
2022-11-28T03:15:16.411Z,29.288
2022-11-28T03:20:16.371Z,29.283
2022-11-28T03:25:16.399Z,29.285
2022-11-28T03:30:16.403Z,29.292
2022-11-28T03:35:16.669Z,29.293
2022-11-28T03:40:16.438Z,29.286
2022-11-28T03:45:16.546Z,29.280
2022-11-28T03:50:16.761Z,29.265
2022-11-28T03:55:16.483Z,29.257
2022-11-28T04:00:16.463Z,29.254
2022-11-28T04:05:16.402Z,29.247
2022-11-28T04:10:16.531Z,29.240
2022-11-28T04:15:16.529Z,29.235
2022-11-28T04:20:16.477Z,29.228
2022-11-28T04:25:16.569Z,29.227
2022-11-28T04:30:16.495Z,29.223
2022-11-28T04:35:16.592Z,29.217
2022-11-28T04:40:16.650Z,29.215
2022-11-28T04:45:16.527Z,29.212
2022-11-28T04:50:16.506Z,29.213
2022-11-28T04:55:16.559Z,29.212
2022-11-28T05:00:15.598Z,29.212
2022-11-28T05:05:15.562Z,29.213
2022-11-28T05:10:15.591Z,29.205
2022-11-28T05:15:15.589Z,29.196
2022-11-28T05:20:15.718Z,29.201
2022-11-28T05:25:15.643Z,29.212
2022-11-28T05:30:15.645Z,29.215
2022-11-28T05:35:15.679Z,29.214
2022-11-28T05:40:15.707Z,29.223
2022-11-28T05:45:15.590Z,29.233
2022-11-28T05:50:15.653Z,29.236
2022-11-28T05:55:15.578Z,29.233
2022-11-28T06:00:15.675Z,29.228
2022-11-28T06:05:41.005Z,29.240
2022-11-28T06:10:15.839Z,29.250
2022-11-28T06:15:15.717Z,29.251
2022-11-28T06:20:15.765Z,29.256
2022-11-28T06:25:15.743Z,29.251
2022-11-28T06:30:15.788Z,29.254
2022-11-28T06:35:15.746Z,29.257
2022-11-28T06:40:15.817Z,29.260
2022-11-28T06:45:15.741Z,29.261
2022-11-28T06:50:15.989Z,29.265
2022-11-28T06:55:15.820Z,29.265
2022-11-28T07:00:15.934Z,29.267
2022-11-28T07:05:15.921Z,29.270
2022-11-28T07:10:15.824Z,29.274
2022-11-28T07:15:15.995Z,29.275
2022-11-28T07:20:15.925Z,29.279
2022-11-28T07:25:15.867Z,29.279
2022-11-28T07:30:15.865Z,29.282
2022-11-28T07:35:15.877Z,29.284
2022-11-28T07:40:15.881Z,29.285
2022-11-28T07:45:15.923Z,29.282
2022-11-28T07:50:15.927Z,29.279
2022-11-28T07:55:16.012Z,29.285
2022-11-28T08:00:16.057Z,29.288
2022-11-28T08:05:16.011Z,29.300
2022-11-28T08:10:15.979Z,29.307
2022-11-28T08:15:15.955Z,29.299
2022-11-28T08:20:15.951Z,29.301
2022-11-28T08:25:16.019Z,29.297
2022-11-28T08:30:15.977Z,29.301
2022-11-28T08:35:16.001Z,29.304
2022-11-28T08:40:16.167Z,29.305
2022-11-28T08:45:15.987Z,29.305
2022-11-28T08:50:16.026Z,29.303
2022-11-28T08:55:16.201Z,29.303
2022-11-28T09:00:16.053Z,29.300
2022-11-28T09:05:16.112Z,29.301
2022-11-28T09:10:16.182Z,29.304
2022-11-28T09:15:16.167Z,29.303
2022-11-28T09:20:16.127Z,29.305
2022-11-28T09:25:16.113Z,29.311
2022-11-28T09:30:16.231Z,29.311
2022-11-28T09:35:16.107Z,29.312
2022-11-28T09:40:16.449Z,29.312
2022-11-28T09:45:16.147Z,29.324
2022-11-28T09:50:16.286Z,29.326
2022-11-28T09:55:16.122Z,29.326
2022-11-28T10:00:16.163Z,29.326
2022-11-28T10:05:16.214Z,29.326
2022-11-28T10:10:16.224Z,29.324
2022-11-28T10:15:16.291Z,29.333
2022-11-28T10:20:16.173Z,29.334
2022-11-28T10:25:16.402Z,29.333
2022-11-28T10:30:16.288Z,29.337
2022-11-28T10:35:16.241Z,29.337
2022-11-28T10:40:16.458Z,29.336
2022-11-28T10:45:16.275Z,29.338
2022-11-28T10:50:16.287Z,29.342
2022-11-28T10:55:16.220Z,29.346
2022-11-28T11:00:16.261Z,29.346
2022-11-28T11:05:16.424Z,29.346
2022-11-28T11:10:16.291Z,29.353
2022-11-28T11:15:16.471Z,29.357
2022-11-28T11:20:16.433Z,29.365
2022-11-28T11:25:16.332Z,29.368
2022-11-28T11:30:16.394Z,29.366
2022-11-28T11:35:16.359Z,29.367
2022-11-28T11:40:16.296Z,29.369
2022-11-28T11:45:16.548Z,29.374
2022-11-28T11:50:16.371Z,29.375
2022-11-28T11:55:19.446Z,29.383
2022-11-28T12:00:16.429Z,29.385
2022-11-28T12:05:16.449Z,29.387
2022-11-28T12:10:16.445Z,29.386
2022-11-28T12:15:16.454Z,29.389
2022-11-28T12:20:16.761Z,29.393
2022-11-28T12:25:16.604Z,29.396
2022-11-28T12:30:16.477Z,29.401
2022-11-28T12:35:16.481Z,29.407
2022-11-28T12:40:16.485Z,29.409
2022-11-28T12:45:16.556Z,29.413
2022-11-28T12:50:16.510Z,29.417
2022-11-28T12:55:16.531Z,29.420
2022-11-28T13:00:16.669Z,29.424
2022-11-28T13:05:16.770Z,29.429
2022-11-28T13:10:16.692Z,29.428
2022-11-28T13:15:16.639Z,29.434
2022-11-28T13:20:16.604Z,29.444
2022-11-28T13:25:16.638Z,29.460
2022-11-28T13:30:16.656Z,29.461
2022-11-28T13:35:16.664Z,29.459
2022-11-28T13:40:17.839Z,29.460
2022-11-28T13:45:16.614Z,29.466
2022-11-28T13:50:16.927Z,29.467
2022-11-28T13:55:17.876Z,29.475
2022-11-28T14:00:16.969Z,29.476
2022-11-28T14:05:21.508Z,29.478
2022-11-28T14:10:16.621Z,29.487
2022-11-28T14:15:16.748Z,29.495
2022-11-28T14:20:16.782Z,29.502
2022-11-28T14:25:16.791Z,29.505
2022-11-28T14:30:16.777Z,29.512
2022-11-28T14:35:16.735Z,29.518
2022-11-28T14:40:16.813Z,29.522
2022-11-28T14:45:16.902Z,29.528
2022-11-28T14:50:16.833Z,29.534
2022-11-28T14:55:16.897Z,29.533
2022-11-28T15:00:16.771Z,29.542
2022-11-28T15:05:16.961Z,29.538
2022-11-28T15:10:16.852Z,29.541
2022-11-28T15:15:16.943Z,29.541
2022-11-28T15:20:17.069Z,29.538
2022-11-28T15:25:16.927Z,29.537
2022-11-28T15:30:16.864Z,29.548
2022-11-28T15:35:16.905Z,29.549
2022-11-28T15:40:16.906Z,29.552
2022-11-28T15:45:16.888Z,29.558
2022-11-28T15:50:17.032Z,29.561
2022-11-28T15:55:16.883Z,29.558
2022-11-28T16:00:16.863Z,29.562
2022-11-28T16:05:16.965Z,29.563
2022-11-28T16:10:17.059Z,29.565
2022-11-28T16:15:16.937Z,29.568
2022-11-28T16:20:17.277Z,29.572
2022-11-28T16:25:16.895Z,29.574
2022-11-28T16:30:17.010Z,29.567
2022-11-28T16:35:17.039Z,29.573
2022-11-28T16:40:17.045Z,29.577
2022-11-28T16:45:17.094Z,29.578
2022-11-28T16:50:17.159Z,29.580
2022-11-28T16:55:17.088Z,29.585
2022-11-28T17:00:17.084Z,29.582
2022-11-28T17:05:17.064Z,29.586
2022-11-28T17:10:17.063Z,29.591
2022-11-28T17:15:17.117Z,29.587
2022-11-28T17:20:17.135Z,29.586
2022-11-28T17:25:17.189Z,29.587
2022-11-28T17:30:17.141Z,29.594
2022-11-28T17:35:17.165Z,29.600
2022-11-28T17:40:17.121Z,29.605
2022-11-28T17:45:17.131Z,29.602
2022-11-28T17:50:17.173Z,29.607
2022-11-28T17:55:17.284Z,29.610
2022-11-28T18:00:17.140Z,29.615
2022-11-28T18:05:17.272Z,29.614
2022-11-28T18:10:17.173Z,29.614
2022-11-28T18:15:17.189Z,29.622
2022-11-28T18:20:17.268Z,29.626
2022-11-28T18:25:17.276Z,29.628
2022-11-28T18:30:17.266Z,29.632
2022-11-28T18:35:17.447Z,29.634
2022-11-28T18:40:17.240Z,29.637
2022-11-28T18:45:17.412Z,29.643
2022-11-28T18:50:17.278Z,29.648
2022-11-28T18:55:17.408Z,29.645
2022-11-28T19:00:17.510Z,29.652
2022-11-28T19:05:17.450Z,29.659
2022-11-28T19:10:17.375Z,29.662
2022-11-28T19:15:17.363Z,29.662
2022-11-28T19:20:17.425Z,29.668
2022-11-28T19:25:17.573Z,29.671
2022-11-28T19:30:17.316Z,29.674
2022-11-28T19:35:17.383Z,29.681
2022-11-28T19:40:15.355Z,29.686
2022-11-28T19:45:15.355Z,29.689
2022-11-28T19:50:15.443Z,29.693
2022-11-28T19:55:15.327Z,29.700
2022-11-28T20:00:15.632Z,29.701
2022-11-28T20:05:15.519Z,29.703
2022-11-28T20:10:15.649Z,29.708
2022-11-28T20:15:18.388Z,29.715
2022-11-28T20:20:15.519Z,29.718
2022-11-28T20:25:20.620Z,29.720
2022-11-28T20:30:15.553Z,29.719
2022-11-28T20:35:15.556Z,29.725
2022-11-28T20:40:15.521Z,29.734
2022-11-28T20:45:15.607Z,29.735
2022-11-28T20:50:15.570Z,29.742
2022-11-28T20:55:15.624Z,29.746
2022-11-28T21:00:15.574Z,29.747
2022-11-28T21:05:15.626Z,29.748
2022-11-28T21:10:15.567Z,29.751
2022-11-28T21:15:15.641Z,29.756
2022-11-28T21:20:15.610Z,29.760
2022-11-28T21:25:15.648Z,29.763
2022-11-28T21:30:15.660Z,29.769
2022-11-28T21:35:15.631Z,29.771
2022-11-28T21:40:15.568Z,29.770
2022-11-28T21:45:15.706Z,29.772
2022-11-28T21:50:15.648Z,29.774
2022-11-28T21:55:15.685Z,29.778
2022-11-28T22:00:38.252Z,29.782
2022-11-28T22:05:15.710Z,29.786
2022-11-28T22:10:15.749Z,29.790
2022-11-28T22:15:15.730Z,29.798
2022-11-28T22:20:15.737Z,29.801
2022-11-28T22:25:15.748Z,29.807
2022-11-28T22:30:15.908Z,29.806
2022-11-28T22:35:15.788Z,29.809
2022-11-28T22:40:16.508Z,29.822
2022-11-28T22:45:15.875Z,29.826
2022-11-28T22:50:15.942Z,29.831
2022-11-28T22:55:15.820Z,29.833
2022-11-28T23:00:15.891Z,29.833
2022-11-28T23:05:16.007Z,29.834
2022-11-28T23:10:15.798Z,29.836
2022-11-28T23:15:15.903Z,29.842
2022-11-28T23:20:15.910Z,29.844
2022-11-28T23:25:15.823Z,29.848
2022-11-28T23:30:15.851Z,29.851
2022-11-28T23:35:16.090Z,29.856
2022-11-28T23:40:15.845Z,29.863
2022-11-28T23:45:15.842Z,29.863
2022-11-28T23:50:16.119Z,29.864
2022-11-28T23:55:15.888Z,29.868
